Ana Sayfa
METAR-TAF:

METAR-TAF

Havaalanları :

Şanlıurfa GAP Havalimanı

Şanlıurfa, Türkiye

Enlem: 37-27N, Boylam: 38-54E, yükseklik: 823 m

Güncel hava durumu gözlemi

Rapor saat 06:20 UTC de 37 dakika önce yapıldı.
Rüzgar kuzeydan 7 kt
Sıcaklık 7°C
Nem 53%
Basınç 1022 hPa
Görüş mesafesi 10 km veya daha fazla
1500 m altında bulut yok ve kümülonimbus yok

METAR: LTCS 200620Z 01007KT CAVOK 07/M02 Q1022 RMK RWY22 02006KT 340V040

Saat: 09:57 (06:57 UTC)

Tahmin

Rapor saat 04:40 UTC de 2 saat ve 17 dakika önce yapıldı.
Ayın 20'si saat 06 UTC'den ayın 21'si saat 06 UTC'ye kadar geçerli Tahmin
Rüzgar kuzeydan 7 kt
Görüş mesafesi 10 km veya daha fazla
1500 m altında bulut yok ve kümülonimbus yok
Dönüşüyor
ayın 20'si saat 11 UTC'den ayın 20'si saat 13 UTC'ye kadar
4000 ft yükseklikte az bulutlu
10000 ft yükseklikte parçalı çok bulutlu

TAF: LTCS 200440Z 2006/2106 36007KT CAVOK BECMG 2011/2013 FEW040 BKN100

4.000'den fazla havaalanı için hava durumu gözlemleri ve tahminleri (METAR ve TAF raporları).

Kullanılabilir istasyonlar harita üzerinde sarı ve kırmızı noktalarla gösterilir.

İstasyonun adını görmek için fareyi noktanın üzerinde gezdirin.

Sonrasında hava gözlem ve tahminlerini görmek için tıklayın.

Haritayı değiştirmek için: yaklaştırmak için siyah artı işaretli yeşil düğmeye ve uzaklaştırmak için de eksi işaretli düğmeye hızla tıklayın; bitişik haritalar için yeşil okları kullanın.


METAR-TAF: